Time;durP1;ratioP1;P1;durP2;ratioP2;P2;SDS_P1;SDS_P2;PMS_P1;PMS_P2;Temp;Humidity;BMP_temperature;BMP_pressure;BME280_temperature;BME280_humidity;BME280_pressure;Samples;Min_cycle;Max_cycle;Signal;HPM_P1;HPM_P2
2022/10/13 00:00:56;;;;;;;16.05;10.88;;;;;;;8.87;98.13;101963.88;6220529;23;20095;-75
2022/10/13 00:03:22;;;;;;;21.63;10.13;;;;;;;8.89;98.10;101971.44;6220564;23;20017;-75
2022/10/13 00:05:50;;;;;;;17.45;10.52;;;;;;;8.89;98.14;101961.56;6221384;23;20347;-75
2022/10/13 00:08:19;;;;;;;17.83;10.57;;;;;;;8.91;97.90;101955.88;6221401;23;20525;-75
2022/10/13 00:10:48;;;;;;;18.15;10.85;;;;;;;8.91;98.28;101945.25;6221803;23;20534;-75
2022/10/13 00:13:18;;;;;;;17.50;10.57;;;;;;;8.95;98.34;101943.31;6195148;23;20025;-75
2022/10/13 00:15:46;;;;;;;16.58;10.40;;;;;;;8.97;98.49;101941.00;6221691;23;20056;-75
2022/10/13 00:18:13;;;;;;;15.88;10.45;;;;;;;8.98;98.29;101943.25;6221951;23;20080;-75
2022/10/13 00:20:48;;;;;;;19.25;10.43;;;;;;;8.99;98.02;101950.06;6221739;23;20023;-75
2022/10/13 00:23:16;;;;;;;17.70;10.40;;;;;;;9.01;98.24;101941.72;6221295;23;20021;-75
2022/10/13 00:25:44;;;;;;;19.95;10.65;;;;;;;9.03;98.33;101950.03;6195246;23;20013;-75
2022/10/13 00:28:11;;;;;;;22.15;11.07;;;;;;;9.03;98.40;101942.81;6221829;23;20024;-75
2022/10/13 00:30:39;;;;;;;17.85;10.88;;;;;;;9.05;98.35;101945.06;6221648;23;20457;-75
2022/10/13 00:33:06;;;;;;;18.42;10.98;;;;;;;9.07;98.39;101947.34;6221794;23;20017;-75
2022/10/13 00:35:33;;;;;;;18.73;10.82;;;;;;;9.07;98.39;101940.13;6221787;23;20017;-75
2022/10/13 00:37:59;;;;;;;16.30;11.05;;;;;;;9.07;98.15;101940.13;6221295;23;20477;-75
2022/10/13 00:40:29;;;;;;;18.90;10.27;;;;;;;9.08;98.18;101940.88;6221302;23;20499;-75
2022/10/13 00:42:56;;;;;;;15.88;10.35;;;;;;;9.06;98.01;101938.63;6221792;23;20104;-75
2022/10/13 00:45:31;;;;;;;19.10;10.63;;;;;;;9.07;98.16;101937.47;6221741;23;20088;-75
2022/10/13 00:48:00;;;;;;;19.33;10.77;;;;;;;9.07;97.88;101936.72;6221921;23;20068;-75
2022/10/13 00:50:34;;;;;;;15.73;10.48;;;;;;;9.08;98.04;101941.63;6221727;23;20051;-75
2022/10/13 00:53:01;;;;;;;18.55;10.77;;;;;;;9.08;98.26;101940.88;6194414;23;20140;-75
2022/10/13 00:55:35;;;;;;;17.38;10.15;;;;;;;9.09;98.16;101937.06;6221696;23;20092;-75
2022/10/13 00:58:05;;;;;;;20.63;11.10;;;;;;;9.10;98.38;101938.56;6221837;23;20492;-75
2022/10/13 01:00:33;;;;;;;20.02;10.30;;;;;;;9.11;98.32;101932.09;6221651;23;20045;-75
2022/10/13 01:03:01;;;;;;;15.95;10.50;;;;;;;9.12;98.39;101931.72;6221597;23;20040;-75
2022/10/13 01:05:29;;;;;;;23.45;11.38;;;;;;;9.14;98.50;101939.28;6221685;23;20498;-75
2022/10/13 01:07:56;;;;;;;14.32;10.10;;;;;;;9.14;98.40;101939.28;6221219;23;20019;-75
2022/10/13 01:10:35;;;;;;;18.90;10.95;;;;;;;9.16;98.48;101935.06;6221483;23;20503;-75
2022/10/13 01:13:22;;;;;;;20.13;10.60;;;;;;;9.18;98.39;101935.44;6221628;23;20048;-75
2022/10/13 01:16:18;;;;;;;21.27;11.73;;;;;;;9.20;98.29;101932.34;6221522;23;20450;-75
2022/10/13 01:19:07;;;;;;;13.85;10.23;;;;;;;9.21;98.49;101933.84;6221730;23;20376;-75
2022/10/13 01:22:01;;;;;;;19.35;10.90;;;;;;;9.24;98.39;101933.06;6221165;23;20043;-75
2022/10/13 01:24:31;;;;;;;15.35;10.13;;;;;;;9.24;98.42;101939.13;6221690;23;20051;-75
2022/10/13 01:27:07;;;;;;;14.07;10.50;;;;;;;9.25;98.80;101930.00;6221621;23;20092;-75
2022/10/13 01:29:57;;;;;;;19.20;10.60;;;;;;;9.26;98.33;101928.09;6221617;23;20092;-75
2022/10/13 01:32:52;;;;;;;17.55;10.85;;;;;;;9.28;98.58;101934.50;6221504;23;20100;-75
2022/10/13 01:35:55;;;;;;;15.88;10.43;;;;;;;9.28;98.27;101933.75;6221007;23;20025;-75
2022/10/13 01:38:34;;;;;;;17.40;10.63;;;;;;;9.30;98.79;101928.78;6221916;23;20009;-75
2022/10/13 01:41:12;;;;;;;18.10;10.88;;;;;;;9.32;98.93;101926.50;6221078;23;20104;-75
2022/10/13 01:44:11;;;;;;;19.02;10.50;;;;;;;9.33;98.89;101930.66;6221533;23;20040;-75
2022/10/13 01:46:42;;;;;;;18.83;10.40;;;;;;;9.35;98.98;101931.00;6209420;23;20049;-75
2022/10/13 01:49:11;;;;;;;16.20;10.90;;;;;;;9.36;98.94;101927.94;6220615;23;20033;-75
2022/10/13 01:51:38;;;;;;;21.67;11.73;;;;;;;9.39;99.38;101915.00;6221220;23;20106;-75
2022/10/13 01:54:07;;;;;;;16.27;10.65;;;;;;;9.40;99.26;101921.81;6221457;23;20017;-75
2022/10/13 01:56:33;;;;;;;17.27;10.70;;;;;;;9.43;99.49;101913.06;6221301;23;20021;-75
2022/10/13 01:59:07;;;;;;;13.50;10.57;;;;;;;9.43;99.24;101913.81;6221425;23;20104;-75
2022/10/13 02:02:17;;;;;;;17.52;10.50;;;;;;;9.46;98.91;101920.22;6169801;23;20017;-75
2022/10/13 02:05:03;;;;;;;19.77;10.15;;;;;;;9.45;99.13;101911.50;6069724;23;20019;-75
2022/10/13 02:07:45;;;;;;;17.45;10.70;;;;;;;9.46;99.11;101901.63;6070614;23;20023;-75
2022/10/13 02:10:19;;;;;;;16.15;10.35;;;;;;;9.49;99.04;101900.81;6070772;23;20062;-75
2022/10/13 02:12:53;;;;;;;20.40;11.38;;;;;;;9.50;99.38;101863.19;6070532;23;20020;-75
2022/10/13 02:15:52;;;;;;;24.73;10.15;;;;;;;9.54;99.16;101879.09;6070615;23;20090;-75
2022/10/13 02:18:24;;;;;;;18.98;10.77;;;;;;;9.55;99.48;101877.94;6024220;23;20540;-75
2022/10/13 02:20:52;;;;;;;17.52;11.05;;;;;;;9.56;99.50;101890.81;6070758;23;20621;-75
2022/10/13 02:23:18;;;;;;;16.13;10.73;;;;;;;9.54;99.22;101887.81;6070775;23;20030;-75
2022/10/13 02:25:47;;;;;;;22.35;12.23;;;;;;;9.55;99.46;101888.56;6070454;23;20476;-75
2022/10/13 02:28:14;;;;;;;16.25;10.48;;;;;;;9.55;99.95;101883.25;6069858;23;20485;-75
2022/10/13 02:30:43;;;;;;;20.02;11.65;;;;;;;9.55;99.74;101888.56;6070446;23;20027;-75
2022/10/13 02:33:11;;;;;;;16.02;10.48;;;;;;;9.56;99.77;101882.84;6069564;23;20111;-75
2022/10/13 02:35:39;;;;;;;20.80;11.15;;;;;;;9.57;99.90;101883.59;6070472;23;20023;-75
2022/10/13 02:38:06;;;;;;;17.27;11.25;;;;;;;9.59;99.78;101883.94;6111061;23;20103;-75
2022/10/13 02:40:32;;;;;;;18.98;10.50;;;;;;;9.59;99.74;101882.03;6221117;23;20079;-75
2022/10/13 02:42:58;;;;;;;18.88;11.10;;;;;;;9.60;99.88;101875.53;6221249;23;20461;-75
2022/10/13 02:45:25;;;;;;;19.80;10.80;;;;;;;9.61;99.96;101874.38;6221231;23;20029;-75
2022/10/13 02:47:53;;;;;;;18.67;11.38;;;;;;;9.63;99.88;101871.31;6220486;23;20021;-75
2022/10/13 02:50:20;;;;;;;18.00;10.73;;;;;;;9.63;99.83;101853.47;6194585;23;20051;-75
2022/10/13 02:52:49;;;;;;;13.73;10.85;;;;;;;9.65;99.87;101864.44;6221252;23;20040;-75
2022/10/13 02:55:15;;;;;;;18.52;10.63;;;;;;;9.65;99.73;101848.50;6221114;23;20088;-75
2022/10/13 02:57:44;;;;;;;21.08;11.18;;;;;;;9.67;99.99;101832.88;6221108;23;20049;-75
2022/10/13 03:00:11;;;;;;;15.20;10.40;;;;;;;9.72;100.00;101805.09;6221036;23;20100;-75
2022/10/13 03:02:37;;;;;;;17.85;10.93;;;;;;;9.77;99.96;101815.25;6220632;23;20087;-76
2022/10/13 03:05:04;;;;;;;18.30;11.25;;;;;;;9.81;100.00;101829.25;6221070;23;20047;-75
2022/10/13 03:07:30;;;;;;;20.33;11.70;;;;;;;9.83;100.00;101828.84;6221067;23;20510;-75
2022/10/13 03:09:57;;;;;;;21.88;11.52;;;;;;;9.83;100.00;101836.81;6220853;23;20096;-75
2022/10/13 03:12:23;;;;;;;18.52;10.77;;;;;;;9.83;100.00;101844.78;6220999;23;20017;-74
2022/10/13 03:14:50;;;;;;;15.10;10.82;;;;;;;9.84;100.00;101849.69;6220782;23;20033;-74
2022/10/13 03:17:16;;;;;;;19.27;11.18;;;;;;;9.83;100.00;101850.84;6220261;23;20059;-75
2022/10/13 03:19:43;;;;;;;15.43;10.18;;;;;;;9.83;100.00;101852.78;6220868;23;20024;-75
2022/10/13 03:22:14;;;;;;;18.35;11.10;;;;;;;9.84;100.00;101862.25;6221131;23;20013;-75
2022/10/13 03:24:41;;;;;;;15.57;10.57;;;;;;;9.85;100.00;101851.22;6220771;23;20016;-75
2022/10/13 03:27:07;;;;;;;20.52;11.27;;;;;;;9.87;100.00;101861.44;6220854;23;20459;-75
2022/10/13 03:29:34;;;;;;;14.85;10.98;;;;;;;9.89;100.00;101851.16;6220895;23;20080;-75
2022/10/13 03:32:00;;;;;;;19.27;11.13;;;;;;;9.94;100.00;101853.34;6193376;23;20021;-75
2022/10/13 03:34:27;;;;;;;14.82;11.40;;;;;;;9.93;100.00;101843.84;6220789;23;20473;-76
2022/10/13 03:36:53;;;;;;;18.90;11.20;;;;;;;9.92;100.00;101843.09;6220875;23;20100;-75
2022/10/13 03:39:21;;;;;;;14.43;10.68;;;;;;;9.93;100.00;101831.31;6221137;23;20499;-75
2022/10/13 03:41:47;;;;;;;22.42;11.60;;;;;;;9.97;100.00;101823.25;6221708;23;20044;-74
2022/10/13 03:44:13;;;;;;;17.23;11.57;;;;;;;9.99;100.00;101821.69;6222009;23;20020;-74
2022/10/13 03:46:40;;;;;;;14.93;11.57;;;;;;;10.00;100.00;101823.16;6221385;23;20084;-75
2022/10/13 03:49:06;;;;;;;16.50;11.45;;;;;;;10.00;100.00;101819.75;6221880;23;20087;-74
2022/10/13 03:51:33;;;;;;;18.98;11.85;;;;;;;10.03;100.00;101808.31;6221777;23;20021;-74
2022/10/13 03:53:59;;;;;;;17.38;11.48;;;;;;;10.03;100.00;101811.72;6222031;23;20017;-74
2022/10/13 03:56:26;;;;;;;15.88;10.85;;;;;;;10.05;100.00;101821.94;6195000;23;20025;-74
2022/10/13 03:58:57;;;;;;;17.77;11.63;;;;;;;10.06;100.00;101814.72;6221911;23;20122;-74
2022/10/13 04:01:28;;;;;;;17.17;11.68;;;;;;;10.06;100.00;101818.13;6221404;23;20076;-74
2022/10/13 04:03:56;;;;;;;18.73;11.82;;;;;;;10.09;100.00;101816.56;6221878;23;20017;-74
2022/10/13 04:06:23;;;;;;;18.92;11.45;;;;;;;10.10;100.00;101813.50;6221718;23;20101;-74
2022/10/13 04:08:50;;;;;;;14.15;11.75;;;;;;;10.14;100.00;101813.44;6222027;23;20013;-75
2022/10/13 04:11:17;;;;;;;18.50;11.38;;;;;;;10.15;100.00;101809.59;6221899;23;20100;-74
2022/10/13 04:13:49;;;;;;;19.25;11.73;;;;;;;10.14;100.00;101816.09;6222064;23;20009;-75
2022/10/13 04:16:24;;;;;;;18.05;12.23;;;;;;;10.12;100.00;101811.19;6221348;23;20485;-75
2022/10/13 04:18:57;;;;;;;20.63;12.13;;;;;;;10.12;100.00;101808.50;6221971;23;20017;-75
2022/10/13 04:21:25;;;;;;;19.55;12.50;;;;;;;10.15;100.00;101794.41;6221973;23;20081;-75
2022/10/13 04:23:57;;;;;;;19.88;11.80;;;;;;;10.17;100.00;101784.09;6222025;23;20498;-74
2022/10/13 04:26:25;;;;;;;15.80;11.35;;;;;;;10.18;100.00;101774.94;6221862;23;20021;-75
2022/10/13 04:28:52;;;;;;;20.95;11.73;;;;;;;10.22;100.00;101774.91;6221286;23;20013;-74
2022/10/13 04:31:23;;;;;;;19.80;12.00;;;;;;;10.22;100.00;101770.34;6221726;23;20529;-75
2022/10/13 04:33:50;;;;;;;20.02;12.25;;;;;;;10.23;100.00;101771.09;6221932;23;20017;-75
2022/10/13 04:36:17;;;;;;;17.17;11.60;;;;;;;10.22;100.00;101778.31;6221760;23;20055;-74
2022/10/13 04:38:45;;;;;;;18.63;11.70;;;;;;;10.24;100.00;101783.22;6221808;23;20447;-74
2022/10/13 04:41:13;;;;;;;18.90;11.80;;;;;;;10.24;100.00;101780.56;6221391;23;20037;-74
2022/10/13 04:43:40;;;;;;;17.63;11.35;;;;;;;10.22;100.00;101786.31;6221012;23;20087;-75
2022/10/13 04:46:13;;;;;;;19.23;11.85;;;;;;;10.22;100.00;101786.31;6221798;23;20044;-75
2022/10/13 04:48:40;;;;;;;18.83;12.30;;;;;;;10.24;100.00;101794.63;6221604;23;20013;-75
2022/10/13 04:51:10;;;;;;;18.90;11.95;;;;;;;10.22;100.00;101791.63;6221073;23;20092;-74
2022/10/13 04:53:37;;;;;;;17.33;11.93;;;;;;;10.22;100.00;101806.84;6194902;23;20481;-74
2022/10/13 04:56:12;;;;;;;18.70;11.55;;;;;;;10.21;100.00;101798.09;6221423;23;20041;-74
2022/10/13 04:58:40;;;;;;;15.23;12.20;;;;;;;10.20;100.00;101804.59;6220912;23;20101;-74
2022/10/13 05:01:10;;;;;;;18.42;11.70;;;;;;;10.20;100.00;101798.50;6221344;23;20056;-74
2022/10/13 05:03:37;;;;;;;16.93;12.10;;;;;;;10.19;100.00;101808.41;6221715;23;20024;-73
2022/10/13 05:06:03;;;;;;;16.60;11.77;;;;;;;10.20;100.00;101799.25;6194635;23;20096;-75
2022/10/13 05:08:31;;;;;;;23.05;12.60;;;;;;;10.21;100.00;101808.75;6221692;23;20088;-75
2022/10/13 05:11:00;;;;;;;20.10;12.27;;;;;;;10.21;100.00;101795.44;6221402;23;20021;-74
2022/10/13 05:13:28;;;;;;;20.45;12.45;;;;;;;10.22;100.00;101801.53;6221027;23;20088;-74
2022/10/13 05:15:57;;;;;;;15.35;11.55;;;;;;;10.22;100.00;101798.84;6221583;23;20017;-74
2022/10/13 05:18:24;;;;;;;17.92;12.02;;;;;;;10.22;100.00;101798.84;6221433;23;20095;-74
2022/10/13 05:20:50;;;;;;;18.35;11.32;;;;;;;10.22;100.00;101798.84;6221630;23;20102;-74
2022/10/13 05:23:17;;;;;;;23.83;11.77;;;;;;;10.22;100.00;101804.94;6221771;23;20024;-75
2022/10/13 05:25:44;;;;;;;18.63;11.27;;;;;;;10.23;100.00;101803.03;6221599;23;20021;-74
2022/10/13 05:28:13;;;;;;;18.55;12.15;;;;;;;10.25;100.00;101804.09;6220955;23;20023;-74
2022/10/13 05:30:39;;;;;;;19.65;12.10;;;;;;;10.28;100.00;101805.19;6195026;23;20434;-75
2022/10/13 05:33:06;;;;;;;20.33;12.43;;;;;;;10.31;100.00;101799.06;6221440;23;20045;-75
2022/10/13 05:35:32;;;;;;;18.50;12.45;;;;;;;10.35;100.00;101792.50;6221374;23;20041;-75
2022/10/13 05:37:59;;;;;;;22.30;12.23;;;;;;;10.39;100.00;101797.00;6221659;23;20080;-75
2022/10/13 05:40:25;;;;;;;20.45;12.55;;;;;;;10.39;100.00;101794.34;6220966;23;20510;-74
2022/10/13 05:42:58;;;;;;;17.40;11.90;;;;;;;10.42;100.00;101788.16;6220523;23;20017;-74
2022/10/13 05:45:28;;;;;;;22.55;12.20;;;;;;;10.42;100.00;101783.59;6221401;23;20095;-74
2022/10/13 05:47:55;;;;;;;24.08;11.88;;;;;;;10.43;100.00;101789.66;6221417;23;20367;-74
2022/10/13 05:50:21;;;;;;;18.95;11.90;;;;;;;10.44;100.00;101791.16;6221456;23;20036;-74
2022/10/13 05:52:48;;;;;;;20.85;11.43;;;;;;;10.44;100.00;101799.16;6221356;23;20096;-74
2022/10/13 05:55:16;;;;;;;20.00;12.30;;;;;;;10.43;100.00;101798.41;6221376;23;20340;-74
2022/10/13 05:57:49;;;;;;;18.95;12.35;;;;;;;10.43;100.00;101792.34;6220812;23;20096;-73
2022/10/13 06:00:17;;;;;;;16.55;11.40;;;;;;;10.43;100.00;101784.34;6221496;23;20484;-75
2022/10/13 06:03:07;;;;;;;19.20;13.70;;;;;;;10.44;100.00;101783.19;6220437;23;20089;-72
2022/10/13 06:05:35;;;;;;;17.10;12.25;;;;;;;10.46;100.00;101778.94;6221212;23;20048;-73
2022/10/13 06:08:01;;;;;;;20.38;13.07;;;;;;;10.48;100.00;101779.28;6194104;23;20024;-72
2022/10/13 06:10:28;;;;;;;19.63;12.00;;;;;;;10.50;100.00;101782.28;6193573;23;20027;-73
2022/10/13 06:12:54;;;;;;;21.70;12.23;;;;;;;10.53;100.00;101778.06;6221024;23;20430;-73
2022/10/13 06:15:20;;;;;;;22.92;12.07;;;;;;;10.55;100.00;101762.41;6220757;23;20189;-73
2022/10/13 06:17:54;;;;;;;23.73;13.55;;;;;;;10.57;100.00;101760.09;6221203;23;20013;-73
2022/10/13 06:20:21;;;;;;;20.55;13.10;;;;;;;10.57;100.00;101752.09;6221373;23;20088;-73
2022/10/13 06:22:49;;;;;;;21.02;12.68;;;;;;;10.56;100.00;101742.63;6221304;23;20503;-72
2022/10/13 06:25:15;;;;;;;23.90;13.13;;;;;;;10.58;100.00;101737.63;6220532;23;20097;-74
2022/10/13 06:27:42;;;;;;;18.08;13.80;;;;;;;10.60;100.00;101746.69;6194250;23;20155;-73
2022/10/13 06:30:09;;;;;;;24.15;13.70;;;;;;;10.60;100.00;101756.59;6221273;23;20017;-73
2022/10/13 06:32:35;;;;;;;24.63;13.50;;;;;;;10.60;100.00;101761.94;6220994;23;20116;-73
2022/10/13 06:35:02;;;;;;;24.52;12.32;;;;;;;10.61;100.00;101755.44;6194293;23;20103;-73
2022/10/13 06:37:28;;;;;;;26.90;13.18;;;;;;;10.61;100.00;101737.53;6221296;23;20025;-73
2022/10/13 06:39:55;;;;;;;22.10;13.85;;;;;;;10.63;100.00;101745.88;6220532;23;20037;-73
2022/10/13 06:42:21;;;;;;;30.50;12.80;;;;;;;10.64;100.00;101741.28;6220601;23;20020;-73
2022/10/13 06:45:07;;;;;;;23.55;12.20;;;;;;;10.67;100.00;101756.44;6221095;23;20025;-73
2022/10/13 06:47:33;;;;;;;23.20;12.10;;;;;;;10.67;100.00;101759.09;6194118;23;20462;-73
2022/10/13 06:50:00;;;;;;;23.45;12.93;;;;;;;10.68;100.00;101771.25;6221142;23;20497;-73
2022/10/13 06:52:26;;;;;;;19.88;13.65;;;;;;;10.68;100.00;101780.00;6221058;23;20024;-73
2022/10/13 06:54:52;;;;;;;20.20;12.40;;;;;;;10.70;100.00;101776.91;6220469;23;20100;-73
2022/10/13 06:57:19;;;;;;;27.17;13.15;;;;;;;10.73;100.00;101786.75;6221011;23;20032;-73
2022/10/13 06:59:45;;;;;;;21.25;12.23;;;;;;;10.76;100.00;101790.50;6221220;23;20045;-73
2022/10/13 07:02:12;;;;;;;24.73;13.68;;;;;;;10.79;100.00;101779.03;6221002;23;20231;-73
2022/10/13 07:04:38;;;;;;;21.00;13.50;;;;;;;10.82;100.00;101781.56;6221052;23;20024;-73
2022/10/13 07:07:04;;;;;;;23.05;12.63;;;;;;;10.84;100.00;101775.84;6221031;23;20017;-73
2022/10/13 07:09:31;;;;;;;28.63;13.57;;;;;;;10.86;100.00;101770.84;6220335;23;20466;-74
2022/10/13 07:11:58;;;;;;;26.40;13.70;;;;;;;10.87;100.00;101761.69;6220298;23;20113;-75
2022/10/13 07:14:27;;;;;;;23.48;13.88;;;;;;;10.90;100.00;101769.59;6194129;23;20021;-75
2022/10/13 07:16:53;;;;;;;23.25;13.73;;;;;;;10.93;100.00;101766.09;6220833;23;20037;-75
2022/10/13 07:19:20;;;;;;;25.75;13.80;;;;;;;10.97;100.00;101769.44;6194028;23;20096;-75
2022/10/13 07:21:46;;;;;;;22.58;13.40;;;;;;;11.00;100.00;101768.59;6220749;23;20040;-75
2022/10/13 07:24:13;;;;;;;23.45;14.18;;;;;;;11.03;100.00;101764.34;6220220;23;20088;-75
2022/10/13 07:26:40;;;;;;;22.88;13.15;;;;;;;11.08;100.00;101765.78;6220931;23;20013;-75
2022/10/13 07:29:06;;;;;;;19.70;13.82;;;;;;;11.11;100.00;101760.34;6220730;23;20013;-75
2022/10/13 07:31:33;;;;;;;24.25;13.80;;;;;;;11.16;100.00;101756.44;6220536;23;20092;-75
2022/10/13 07:34:00;;;;;;;22.58;14.73;;;;;;;11.18;100.00;101762.84;6220665;23;20017;-75
2022/10/13 07:36:27;;;;;;;20.33;13.90;;;;;;;11.22;100.00;101760.06;6220689;23;20018;-75
2022/10/13 07:38:53;;;;;;;22.90;13.73;;;;;;;11.25;100.00;101765.31;6220152;23;20096;-75
2022/10/13 07:41:19;;;;;;;24.73;14.27;;;;;;;11.31;100.00;101765.56;6188344;23;20046;-75
2022/10/13 07:43:46;;;;;;;22.83;15.07;;;;;;;11.35;100.00;101771.56;6188913;23;20451;-75
2022/10/13 07:46:12;;;;;;;29.23;15.10;;;;;;;11.40;100.00;101765.72;6190435;23;20020;-75
2022/10/13 07:48:39;;;;;;;22.17;14.68;;;;;;;11.45;100.00;101770.53;6190622;23;20503;-75
2022/10/13 07:51:08;;;;;;;32.83;15.07;;;;;;;11.49;100.00;101773.88;6190212;23;20031;-75
2022/10/13 07:53:35;;;;;;;26.17;14.88;;;;;;;11.55;100.00;101768.78;6190050;23;20598;-75
2022/10/13 07:56:03;;;;;;;24.05;15.48;;;;;;;11.58;100.00;101765.28;6188729;23;20072;-75
2022/10/13 07:58:30;;;;;;;20.60;15.18;;;;;;;11.62;100.00;101769.31;6190536;23;20068;-75
2022/10/13 08:01:00;;;;;;;27.52;15.65;;;;;;;11.64;100.00;101766.22;6190362;23;20045;-75
2022/10/13 08:03:28;;;;;;;26.50;16.13;;;;;;;11.67;100.00;101770.72;6190449;23;20455;-75
2022/10/13 08:05:58;;;;;;;25.92;15.88;;;;;;;11.70;100.00;101770.63;6190302;23;20699;-75
2022/10/13 08:08:25;;;;;;;25.23;15.57;;;;;;;11.73;100.00;101770.97;6188034;23;20025;-75
2022/10/13 08:10:51;;;;;;;31.02;16.00;;;;;;;11.77;100.00;101768.97;6190271;23;20097;-75
2022/10/13 08:13:23;;;;;;;23.02;15.80;;;;;;;11.81;100.00;101764.31;6190333;23;20028;-75
2022/10/13 08:15:50;;;;;;;23.50;16.38;;;;;;;11.90;100.00;101761.78;6190216;23;20093;-75
2022/10/13 08:18:16;;;;;;;29.85;15.32;;;;;;;11.98;100.00;101755.81;6190221;23;20020;-74
2022/10/13 08:20:45;;;;;;;25.65;16.42;;;;;;;12.12;100.00;101751.22;6189491;23;20085;-75
2022/10/13 08:23:12;;;;;;;26.27;17.23;;;;;;;12.25;100.00;101747.41;6190121;23;20045;-75
2022/10/13 08:25:47;;;;;;;33.85;16.77;;;;;;;12.48;100.00;101750.94;6190513;23;20014;-75
2022/10/13 08:28:30;;;;;;;23.75;15.63;;;;;;;12.72;100.00;101756.69;6191514;23;20097;-75
2022/10/13 08:30:56;;;;;;;24.55;15.90;;;;;;;12.92;100.00;101759.88;6191591;23;20423;-75
2022/10/13 08:33:24;;;;;;;25.83;15.52;;;;;;;13.10;100.00;101759.31;6191515;23;20021;-75
2022/10/13 08:35:51;;;;;;;21.48;15.27;;;;;;;13.14;100.00;101757.25;6190990;23;20018;-75
2022/10/13 08:38:18;;;;;;;25.02;15.55;;;;;;;13.13;100.00;101759.19;6189914;23;20092;-75
2022/10/13 08:40:47;;;;;;;23.83;14.73;;;;;;;13.10;100.00;101757.38;6199286;23;20025;-76
2022/10/13 08:43:17;;;;;;;22.50;14.88;;;;;;;13.10;100.00;101764.66;6221884;23;20017;-74
2022/10/13 08:45:44;;;;;;;18.95;15.20;;;;;;;13.09;100.00;101763.16;6221709;23;20096;-76
2022/10/13 08:48:21;;;;;;;20.25;15.13;;;;;;;13.13;100.00;101767.22;6221547;23;20039;-74
2022/10/13 08:50:50;;;;;;;21.55;15.15;;;;;;;13.14;100.00;101766.03;6221224;23;20096;-75
2022/10/13 08:53:30;;;;;;;20.38;15.45;;;;;;;13.12;100.00;101763.03;6221698;23;20025;-75
2022/10/13 08:56:06;;;;;;;20.40;15.77;;;;;;;13.07;99.99;101758.22;6221674;23;20124;-74
2022/10/13 08:58:37;;;;;;;22.55;15.73;;;;;;;13.05;100.00;101757.16;6221654;23;20017;-75
2022/10/13 09:01:13;;;;;;;19.50;14.55;;;;;;;13.04;99.98;101753.75;6194484;23;20435;-75
2022/10/13 09:03:50;;;;;;;23.17;15.27;;;;;;;13.08;100.00;101745.63;6221752;23;20023;-74
2022/10/13 09:06:27;;;;;;;19.15;16.17;;;;;;;13.15;100.00;101750.75;6221188;23;20013;-75
2022/10/13 09:08:57;;;;;;;21.98;14.68;;;;;;;13.16;100.00;101752.25;6221841;23;20017;-75
2022/10/13 09:11:35;;;;;;;21.65;14.98;;;;;;;13.13;99.71;101748.50;6221514;23;20064;-74
2022/10/13 09:14:08;;;;;;;20.23;15.30;;;;;;;13.17;100.00;101751.09;6221695;23;20033;-76
2022/10/13 09:16:36;;;;;;;23.17;15.68;;;;;;;13.20;99.68;101744.84;6221627;23;20045;-75
2022/10/13 09:19:19;;;;;;;21.20;14.48;;;;;;;13.21;99.38;101751.69;6221045;23;20443;-75
2022/10/13 09:21:47;;;;;;;25.10;15.10;;;;;;;13.16;98.96;101753.00;6221800;23;20085;-75
2022/10/13 09:24:16;;;;;;;19.63;14.88;;;;;;;13.19;99.17;101752.16;6221690;23;20455;-75
2022/10/13 09:26:44;;;;;;;27.30;14.38;;;;;;;13.20;98.69;101748.25;6221612;23;20120;-75
2022/10/13 09:29:25;;;;;;;27.92;13.73;;;;;;;13.18;98.58;101737.28;6221534;23;20068;-75
2022/10/13 09:32:11;;;;;;;18.98;12.27;;;;;;;13.15;98.25;101742.72;6221595;23;20049;-74
2022/10/13 09:34:38;;;;;;;18.30;12.43;;;;;;;13.13;98.09;101739.72;6221054;23;20411;-75
2022/10/13 09:37:15;;;;;;;20.02;12.02;;;;;;;13.15;98.08;101740.03;6221270;23;20017;-75
2022/10/13 09:39:41;;;;;;;16.90;11.80;;;;;;;13.17;97.76;101738.47;6221648;23;20017;-75
2022/10/13 09:42:20;;;;;;;18.65;12.20;;;;;;;13.27;97.80;101742.69;6221054;23;20467;-75
2022/10/13 09:44:56;;;;;;;18.65;11.77;;;;;;;13.35;97.70;101732.50;6221536;23;20545;-75
2022/10/13 09:47:25;;;;;;;12.73;10.75;;;;;;;13.45;96.97;101744.00;6221836;23;20036;-75
2022/10/13 09:50:01;;;;;;;16.05;11.40;;;;;;;13.51;96.51;101740.34;6221199;23;20184;-75
2022/10/13 09:52:33;;;;;;;21.10;12.18;;;;;;;13.58;96.21;101748.13;6221501;23;20024;-75
2022/10/13 09:55:00;;;;;;;19.80;11.60;;;;;;;13.66;95.75;101740.59;6221589;23;20023;-75
2022/10/13 09:57:42;;;;;;;21.00;10.93;;;;;;;13.73;95.22;101748.38;6221480;23;20060;-75
2022/10/13 10:00:18;;;;;;;14.65;10.27;;;;;;;13.79;94.92;101749.31;6221486;23;20100;-75
2022/10/13 10:03:00;;;;;;;15.20;9.88;;;;;;;13.85;94.44;101744.13;6220736;23;20044;-75
2022/10/13 10:05:49;;;;;;;14.32;9.98;;;;;;;13.96;94.26;101744.50;6221581;23;20021;-75
2022/10/13 10:08:24;;;;;;;16.70;10.40;;;;;;;14.06;94.49;101740.66;6221417;23;20455;-75
2022/10/13 10:11:12;;;;;;;16.85;9.68;;;;;;;14.20;93.55;101739.41;6221351;23;20017;-75
2022/10/13 10:13:38;;;;;;;15.80;9.50;;;;;;;14.26;93.27;101740.31;6221123;23;20063;-75
2022/10/13 10:16:18;;;;;;;23.00;10.13;;;;;;;14.25;92.39;101728.13;6221303;23;20076;-75
2022/10/13 10:18:51;;;;;;;19.13;9.70;;;;;;;14.22;92.65;101737.78;6220812;23;20092;-75
2022/10/13 10:21:35;;;;;;;14.00;9.63;;;;;;;14.31;92.24;101727.09;6221228;23;20085;-75
2022/10/13 10:24:34;;;;;;;15.98;10.32;;;;;;;14.41;91.68;101727.13;6221481;23;20088;-75
2022/10/13 10:27:28;;;;;;;14.50;9.60;;;;;;;14.47;90.83;101728.06;6194180;23;20018;-75
2022/10/13 10:30:02;;;;;;;18.65;9.98;;;;;;;14.51;89.89;101723.31;6194499;23;20104;-75
2022/10/13 10:32:41;;;;;;;17.40;9.50;;;;;;;14.50;89.84;101729.84;6220736;23;20088;-75
2022/10/13 10:35:31;;;;;;;16.65;9.77;;;;;;;14.57;89.10;101726.91;6194419;23;20112;-75
2022/10/13 10:38:12;;;;;;;17.63;9.13;;;;;;;14.67;88.59;101717.69;6221398;23;20096;-76
2022/10/13 10:40:55;;;;;;;16.17;9.23;;;;;;;14.81;88.38;101713.69;6220699;23;20013;-76
2022/10/13 10:43:27;;;;;;;20.63;9.65;;;;;;;14.84;86.84;101716.22;6221220;23;20502;-76
2022/10/13 10:45:56;;;;;;;13.77;9.07;;;;;;;14.94;86.96;101720.41;6220613;23;20053;-76
2022/10/13 10:48:29;;;;;;;15.15;9.27;;;;;;;14.96;86.67;101714.59;6220582;23;20477;-76
2022/10/13 10:50:56;;;;;;;18.13;9.85;;;;;;;15.02;86.96;101712.81;6221102;23;20033;-75
2022/10/13 10:53:42;;;;;;;17.08;9.13;;;;;;;15.09;87.11;101715.22;6221053;23;20021;-76
2022/10/13 10:56:24;;;;;;;17.70;8.95;;;;;;;15.12;85.78;101721.63;6221100;23;20020;-76
2022/10/13 10:59:00;;;;;;;17.02;9.35;;;;;;;15.12;85.73;101714.31;6221002;23;20017;-76
2022/10/13 11:01:37;;;;;;;13.45;8.98;;;;;;;15.21;85.27;101710.88;6220505;23;20017;-76
2022/10/13 11:04:31;;;;;;;14.00;8.88;;;;;;;15.21;85.60;101702.81;6220934;23;20023;-76
2022/10/13 11:06:58;;;;;;;17.95;9.63;;;;;;;15.15;85.61;101710.75;6220982;23;20045;-75
2022/10/13 11:09:39;;;;;;;10.15;8.73;;;;;;;15.20;85.34;101701.34;6194025;23;20067;-75
2022/10/13 11:12:18;;;;;;;17.30;9.52;;;;;;;15.22;85.18;101697.00;6221000;23;20104;-75
2022/10/13 11:15:10;;;;;;;17.58;9.70;;;;;;;15.14;84.75;101703.91;6220378;23;20013;-75
2022/10/13 11:17:39;;;;;;;16.10;9.45;;;;;;;15.16;85.21;101698.84;6220880;23;20092;-75
2022/10/13 11:20:18;;;;;;;23.55;10.93;;;;;;;15.28;85.56;101699.84;6220901;23;20052;-75
2022/10/13 11:22:57;;;;;;;17.67;11.68;;;;;;;15.34;84.68;101696.13;6220926;23;20072;-75
2022/10/13 11:25:39;;;;;;;15.15;11.75;;;;;;;15.35;85.07;101694.19;6220819;23;20475;-75
2022/10/13 11:28:21;;;;;;;17.70;13.25;;;;;;;15.23;84.57;101697.75;6194316;23;20017;-75